createdAt,value
2019-03-22T00:02:22.448Z,63.37
2019-03-22T00:04:53.607Z,63.07
2019-03-22T00:07:24.791Z,62.96
2019-03-22T00:09:55.724Z,62.54
2019-03-22T00:12:26.587Z,62.52
2019-03-22T00:14:57.851Z,62.16
2019-03-22T00:17:29.149Z,62.28
2019-03-22T00:20:00.549Z,62.62
2019-03-22T00:22:31.475Z,62.71
2019-03-22T00:25:02.985Z,62.14
2019-03-22T00:27:34.217Z,62.35
2019-03-22T00:30:05.472Z,61.63
2019-03-22T00:32:36.753Z,61.55
2019-03-22T00:35:08.756Z,61.95
2019-03-22T00:37:39.752Z,62.62
2019-03-22T00:40:11.246Z,62.96
2019-03-22T00:42:42.408Z,63.36
2019-03-22T00:45:13.865Z,63.42
2019-03-22T00:47:45.025Z,63.13
2019-03-22T00:50:16.233Z,62.52
2019-03-22T00:52:47.280Z,62.89
2019-03-22T00:55:18.661Z,63.27
2019-03-22T00:57:52.407Z,63.74
2019-03-22T01:00:23.908Z,63.76
2019-03-22T01:02:55.121Z,63.08
2019-03-22T01:05:26.148Z,62.16
2019-03-22T01:07:57.179Z,62.50
2019-03-22T01:10:28.479Z,63.49
2019-03-22T01:12:59.348Z,63.39
2019-03-22T01:15:30.597Z,63.79
2019-03-22T01:18:01.854Z,64.24
2019-03-22T01:20:32.901Z,64.20
2019-03-22T01:23:03.690Z,63.63
2019-03-22T01:25:35.005Z,62.40
2019-03-22T01:28:06.152Z,62.23
2019-03-22T01:30:37.498Z,62.64
2019-03-22T01:33:08.454Z,63.35
2019-03-22T01:35:39.637Z,63.95
2019-03-22T01:38:11.006Z,63.88
2019-03-22T01:40:42.100Z,63.84
2019-03-22T01:43:13.354Z,63.61
2019-03-22T01:45:44.528Z,63.76
2019-03-22T01:48:15.796Z,64.47
2019-03-22T01:50:46.915Z,64.46
2019-03-22T01:53:18.244Z,64.15
2019-03-22T01:55:49.483Z,64.27
2019-03-22T01:58:20.546Z,64.07
2019-03-22T02:00:51.556Z,64.77
2019-03-22T02:03:22.781Z,65.66
2019-03-22T02:05:53.902Z,66.57
2019-03-22T02:08:25.006Z,66.84
2019-03-22T02:10:56.350Z,66.81
2019-03-22T02:13:27.661Z,66.57
2019-03-22T02:15:59.070Z,66.55
2019-03-22T02:18:30.216Z,66.55
2019-03-22T02:21:01.579Z,66.67
2019-03-22T02:23:32.637Z,66.97
2019-03-22T02:26:03.416Z,67.06
2019-03-22T02:28:34.291Z,66.43
2019-03-22T02:31:05.394Z,66.42
2019-03-22T02:33:36.387Z,66.60
2019-03-22T02:36:07.551Z,67.43
2019-03-22T02:38:39.192Z,68.06
2019-03-22T02:41:11.716Z,68.05
2019-03-22T02:43:42.919Z,68.07
2019-03-22T02:46:14.327Z,67.86
2019-03-22T02:48:45.439Z,67.92
2019-03-22T02:51:16.347Z,68.04
2019-03-22T02:53:47.458Z,68.12
2019-03-22T02:56:18.411Z,67.68
2019-03-22T02:58:49.746Z,67.20
2019-03-22T03:01:21.119Z,67.39
2019-03-22T03:03:54.937Z,67.74
2019-03-22T03:06:26.380Z,67.80
2019-03-22T03:08:57.487Z,68.18
2019-03-22T03:11:28.674Z,68.30
2019-03-22T03:13:59.734Z,68.21
2019-03-22T03:16:30.819Z,68.75
2019-03-22T03:19:01.992Z,67.50
2019-03-22T03:21:33.219Z,67.50
2019-03-22T03:24:04.462Z,67.28
2019-03-22T03:26:35.642Z,67.47
2019-03-22T03:29:06.784Z,67.25
2019-03-22T03:31:37.845Z,65.93
2019-03-22T03:34:08.641Z,65.01
2019-03-22T03:36:40.005Z,63.44
2019-03-22T03:39:11.479Z,63.05
2019-03-22T03:41:42.490Z,62.06
2019-03-22T03:44:13.634Z,62.08
2019-03-22T03:46:44.978Z,61.95
2019-03-22T03:49:16.160Z,62.28
2019-03-22T03:51:47.210Z,62.53
2019-03-22T03:54:18.542Z,62.69
2019-03-22T03:56:49.621Z,62.75
2019-03-22T03:59:20.766Z,62.98
2019-03-22T04:01:51.858Z,63.25
2019-03-22T04:04:23.132Z,62.95
2019-03-22T04:06:54.362Z,63.00
2019-03-22T04:09:25.488Z,62.88
2019-03-22T04:11:56.575Z,62.96
2019-03-22T04:14:27.773Z,62.68
2019-03-22T04:16:58.979Z,62.48
2019-03-22T04:19:29.735Z,62.40
2019-03-22T04:22:02.592Z,62.65
2019-03-22T04:24:33.816Z,63.29
2019-03-22T04:27:05.035Z,64.04
2019-03-22T04:29:36.201Z,64.38
2019-03-22T04:32:07.429Z,64.64
2019-03-22T04:34:38.600Z,64.76
2019-03-22T04:37:09.937Z,64.32
2019-03-22T04:39:41.391Z,63.77
2019-03-22T04:42:12.538Z,63.36
2019-03-22T04:44:43.606Z,62.20
2019-03-22T04:47:16.702Z,61.93
2019-03-22T04:49:49.968Z,62.28
2019-03-22T04:52:23.925Z,62.19
2019-03-22T04:54:57.574Z,62.20
2019-03-22T04:57:31.261Z,62.24
2019-03-22T05:00:03.817Z,62.17
2019-03-22T05:02:35.847Z,62.34
2019-03-22T05:05:08.755Z,62.41
2019-03-22T05:07:40.075Z,62.34
2019-03-22T05:10:14.221Z,62.41
2019-03-22T05:12:47.501Z,62.20
2019-03-22T05:15:20.776Z,62.01
2019-03-22T05:17:52.093Z,61.71
2019-03-22T05:20:24.273Z,61.51
2019-03-22T05:22:56.819Z,61.26
2019-03-22T05:25:29.068Z,61.09
2019-03-22T05:28:03.256Z,60.97
2019-03-22T05:31:12.405Z,60.60
2019-03-22T05:33:43.802Z,59.65
2019-03-22T05:36:15.098Z,59.40
2019-03-22T05:38:46.205Z,59.49
2019-03-22T05:41:17.217Z,59.13
2019-03-22T05:43:48.690Z,59.26
2019-03-22T05:46:19.881Z,59.80
2019-03-22T05:48:50.788Z,60.13
2019-03-22T05:51:21.456Z,60.49
2019-03-22T05:53:52.629Z,61.00
2019-03-22T05:56:23.703Z,60.86
2019-03-22T05:58:54.822Z,60.92
2019-03-22T06:01:26.165Z,60.68
2019-03-22T06:03:57.373Z,60.83
2019-03-22T06:06:28.752Z,60.87
2019-03-22T06:09:00.171Z,60.94
2019-03-22T06:11:31.541Z,60.06
2019-03-22T06:14:02.697Z,59.68
2019-03-22T06:16:33.634Z,59.73
2019-03-22T06:19:04.708Z,59.11
2019-03-22T06:21:35.736Z,57.99
2019-03-22T06:24:06.849Z,55.06
2019-03-22T06:26:37.810Z,55.47
2019-03-22T06:29:09.204Z,54.80
2019-03-22T06:31:40.708Z,53.87
2019-03-22T06:34:11.936Z,53.01
2019-03-22T06:36:43.101Z,53.19
2019-03-22T06:39:14.331Z,52.43
2019-03-22T06:41:47.001Z,52.19
2019-03-22T06:44:18.415Z,51.57
2019-03-22T06:46:49.691Z,51.31
2019-03-22T06:49:20.977Z,50.68
2019-03-22T06:51:52.047Z,50.39
2019-03-22T06:54:31.464Z,50.37
2019-03-22T06:56:56.395Z,50.25
2019-03-22T06:59:27.629Z,50.55
2019-03-22T07:02:02.286Z,49.95
2019-03-22T07:04:34.830Z,49.52
2019-03-22T07:07:06.197Z,49.63
2019-03-22T07:09:37.215Z,49.70
2019-03-22T07:12:08.420Z,49.58
2019-03-22T07:14:39.957Z,49.59
2019-03-22T07:17:11.127Z,48.90
2019-03-22T07:19:45.118Z,48.42
2019-03-22T07:22:16.480Z,47.78
2019-03-22T07:24:47.309Z,45.33
2019-03-22T07:27:18.381Z,42.26
2019-03-22T07:29:49.559Z,39.65
2019-03-22T07:32:21.759Z,37.42
2019-03-22T07:34:52.725Z,34.04
2019-03-22T07:37:23.994Z,32.66
2019-03-22T07:39:55.458Z,31.93
2019-03-22T07:42:26.693Z,29.51
2019-03-22T07:44:57.594Z,30.31
2019-03-22T07:47:28.721Z,29.00
2019-03-22T07:50:00.025Z,28.42
2019-03-22T07:52:31.281Z,26.69
2019-03-22T07:55:02.595Z,25.36
2019-03-22T07:57:34.033Z,23.88
2019-03-22T08:00:05.519Z,23.00
2019-03-22T08:02:36.638Z,21.06
2019-03-22T08:05:08.177Z,21.42
2019-03-22T08:07:39.362Z,20.34
2019-03-22T08:10:12.941Z,18.53
2019-03-22T08:12:43.963Z,18.03
2019-03-22T08:15:26.754Z,17.13
2019-03-22T08:17:57.857Z,16.95
2019-03-22T08:20:28.825Z,16.64
2019-03-22T08:23:00.123Z,16.63
2019-03-22T08:25:32.625Z,16.06
2019-03-22T08:28:04.176Z,16.37
2019-03-22T08:30:42.879Z,16.30
2019-03-22T08:33:08.143Z,16.18
2019-03-22T08:35:39.276Z,15.39
2019-03-22T08:38:10.193Z,15.16
2019-03-22T08:40:41.205Z,15.38
2019-03-22T08:43:12.167Z,15.05
2019-03-22T08:45:43.250Z,14.73
2019-03-22T08:48:14.265Z,15.29
2019-03-22T08:50:45.242Z,14.95
2019-03-22T08:53:16.128Z,14.62
2019-03-22T08:55:47.519Z,14.48
2019-03-22T08:58:18.939Z,14.32
2019-03-22T09:00:57.275Z,13.38
2019-03-22T09:03:22.683Z,13.87
2019-03-22T09:05:53.753Z,14.58
2019-03-22T09:08:25.031Z,14.78
2019-03-22T09:10:56.169Z,14.43
2019-03-22T09:13:27.318Z,14.51
2019-03-22T09:15:58.410Z,14.75
2019-03-22T09:18:29.539Z,14.03
2019-03-22T09:21:00.781Z,13.64
2019-03-22T09:23:31.807Z,13.04
2019-03-22T09:26:02.933Z,12.91
2019-03-22T09:28:34.145Z,11.95
2019-03-22T09:31:10.065Z,11.90
2019-03-22T09:33:38.009Z,11.57
2019-03-22T09:36:08.644Z,10.90
2019-03-22T09:38:39.591Z,12.01
2019-03-22T09:41:10.818Z,12.16
2019-03-22T09:43:41.901Z,11.03
2019-03-22T09:46:12.681Z,11.11
2019-03-22T09:48:43.289Z,10.91
2019-03-22T09:51:14.668Z,11.02
2019-03-22T09:53:45.567Z,10.75
2019-03-22T09:56:16.427Z,10.08
2019-03-22T09:58:47.328Z,10.09
2019-03-22T10:01:23.723Z,9.79
2019-03-22T10:03:50.976Z,9.52
2019-03-22T10:06:22.147Z,9.42
2019-03-22T10:08:53.159Z,9.09
2019-03-22T10:11:25.024Z,9.27
2019-03-22T10:13:55.783Z,10.11
2019-03-22T10:16:26.886Z,10.65
2019-03-22T10:18:58.075Z,10.85
2019-03-22T10:21:29.327Z,10.37
2019-03-22T10:24:00.183Z,10.01
2019-03-22T10:26:31.453Z,9.25
2019-03-22T10:29:02.578Z,9.30
2019-03-22T10:31:37.399Z,10.15
2019-03-22T10:34:05.998Z,10.43
2019-03-22T10:36:36.992Z,10.31
2019-03-22T10:39:10.506Z,9.81
2019-03-22T10:41:41.673Z,9.65
2019-03-22T10:44:12.978Z,10.51
2019-03-22T10:46:43.923Z,10.17
2019-03-22T10:49:14.891Z,10.67
2019-03-22T10:51:56.126Z,10.70
2019-03-22T10:54:18.765Z,10.39
2019-03-22T10:56:49.719Z,10.79
2019-03-22T10:59:20.865Z,11.00
2019-03-22T11:02:02.701Z,11.38
2019-03-22T11:04:24.706Z,11.31
2019-03-22T11:06:58.043Z,10.39
2019-03-22T11:09:28.871Z,10.00
2019-03-22T11:11:59.913Z,9.75
2019-03-22T11:14:31.066Z,9.35
2019-03-22T11:17:02.239Z,8.85
2019-03-22T11:19:33.399Z,8.73
2019-03-22T11:22:04.735Z,8.52
2019-03-22T11:24:35.726Z,8.49
2019-03-22T11:27:07.313Z,8.54
2019-03-22T11:29:38.536Z,8.25
2019-03-22T11:32:12.790Z,8.44
2019-03-22T11:34:42.263Z,8.56
2019-03-22T11:37:13.493Z,8.60
2019-03-22T11:39:44.561Z,9.06
2019-03-22T11:42:15.657Z,9.24
2019-03-22T11:44:46.774Z,8.38
2019-03-22T11:47:18.147Z,10.02
2019-03-22T11:49:49.286Z,9.00
2019-03-22T11:52:20.131Z,9.33
2019-03-22T11:54:51.062Z,9.02
2019-03-22T11:57:22.154Z,8.81
2019-03-22T11:59:53.305Z,8.52
2019-03-22T12:02:25.129Z,8.35
2019-03-22T12:04:56.346Z,8.24
2019-03-22T12:07:27.117Z,8.83
2019-03-22T12:09:58.206Z,8.29
2019-03-22T12:12:29.458Z,8.54
2019-03-22T12:15:00.622Z,9.46
2019-03-22T12:17:31.541Z,9.64
2019-03-22T12:20:02.424Z,9.30
2019-03-22T12:22:33.583Z,9.12
2019-03-22T12:25:05.026Z,8.90
2019-03-22T12:27:38.786Z,8.51
2019-03-22T12:30:12.135Z,8.33
2019-03-22T12:32:43.162Z,8.36
2019-03-22T12:35:15.129Z,8.05
2019-03-22T12:37:46.398Z,8.17
2019-03-22T12:40:18.429Z,8.22
2019-03-22T12:42:49.825Z,8.15
2019-03-22T12:45:26.315Z,8.40
2019-03-22T12:47:57.635Z,8.30
2019-03-22T12:50:29.121Z,8.48
2019-03-22T12:53:00.369Z,8.19
2019-03-22T12:55:31.467Z,8.24
2019-03-22T12:58:03.226Z,8.54
2019-03-22T13:00:34.459Z,8.59
2019-03-22T13:03:05.536Z,8.92
2019-03-22T13:05:36.747Z,9.01
2019-03-22T13:08:08.029Z,8.78
2019-03-22T13:10:38.992Z,8.77
2019-03-22T13:13:09.800Z,8.99
2019-03-22T13:15:40.947Z,8.95
2019-03-22T13:18:12.087Z,9.14
2019-03-22T13:20:43.151Z,9.25
2019-03-22T13:23:14.334Z,9.71
2019-03-22T13:25:45.428Z,9.98
2019-03-22T13:28:16.665Z,9.88
2019-03-22T13:30:47.548Z,10.75
2019-03-22T13:33:18.982Z,10.53
2019-03-22T13:35:50.132Z,10.09
2019-03-22T13:38:20.987Z,10.74
2019-03-22T13:40:52.179Z,11.35
2019-03-22T13:43:23.232Z,12.72
2019-03-22T13:45:54.250Z,13.75
2019-03-22T13:48:25.349Z,14.62
2019-03-22T13:50:56.357Z,15.15
2019-03-22T13:53:27.424Z,17.32
2019-03-22T13:55:58.446Z,17.32
2019-03-22T13:58:29.304Z,18.42
2019-03-22T14:01:00.550Z,19.53
2019-03-22T14:03:33.229Z,21.81
2019-03-22T14:06:04.547Z,21.66
2019-03-22T14:08:35.308Z,21.20
2019-03-22T14:11:06.537Z,22.77
2019-03-22T14:13:39.741Z,23.05
2019-03-22T14:16:10.607Z,23.42
2019-03-22T14:18:41.603Z,23.54
2019-03-22T14:21:12.812Z,23.93
2019-03-22T14:23:45.569Z,24.61
2019-03-22T14:26:16.699Z,24.31
2019-03-22T14:28:47.564Z,24.63
2019-03-22T14:31:18.857Z,24.36
2019-03-22T14:33:50.052Z,24.50
2019-03-22T14:36:21.096Z,24.60
2019-03-22T14:38:52.432Z,25.45
2019-03-22T14:41:23.753Z,25.84
2019-03-22T14:43:54.918Z,26.28
2019-03-22T14:46:26.103Z,25.88
2019-03-22T14:48:57.247Z,25.72
2019-03-22T14:51:28.441Z,26.24
2019-03-22T14:53:59.595Z,25.66
2019-03-22T14:56:30.758Z,26.28
2019-03-22T14:59:01.992Z,26.25
2019-03-22T15:01:33.341Z,26.86
2019-03-22T15:04:04.287Z,26.92
2019-03-22T15:06:35.544Z,26.86
2019-03-22T15:09:08.310Z,27.15
2019-03-22T15:11:39.617Z,27.78
2019-03-22T15:14:29.736Z,27.83
2019-03-22T15:17:17.774Z,27.88
2019-03-22T15:20:10.621Z,28.78
2019-03-22T15:23:06.274Z,29.53
2019-03-22T15:25:59.416Z,29.03
2019-03-22T15:28:48.174Z,29.60
2019-03-22T15:31:56.712Z,29.76
2019-03-22T15:34:45.648Z,29.62
2019-03-22T15:40:06.221Z,30.62
2019-03-22T15:42:37.178Z,30.83
2019-03-22T15:45:10.717Z,31.27
2019-03-22T15:47:42.119Z,31.88
2019-03-22T15:50:15.109Z,32.02
2019-03-22T15:52:46.064Z,31.95
2019-03-22T15:55:17.214Z,32.53
2019-03-22T15:57:48.364Z,32.47
2019-03-22T16:00:23.175Z,32.44
2019-03-22T16:02:54.148Z,32.52
2019-03-22T16:05:25.462Z,32.81
2019-03-22T16:07:56.955Z,33.13
2019-03-22T16:10:28.098Z,33.58
2019-03-22T16:12:59.256Z,33.96
2019-03-22T16:15:30.543Z,34.33
2019-03-22T16:18:03.883Z,34.85
2019-03-22T16:20:35.111Z,35.29
2019-03-22T16:23:06.312Z,35.82
2019-03-22T16:25:37.619Z,35.36
2019-03-22T16:28:08.824Z,36.43
2019-03-22T16:30:40.298Z,36.73
2019-03-22T16:33:12.971Z,36.52
2019-03-22T16:35:44.213Z,37.09
2019-03-22T16:38:15.353Z,38.27
2019-03-22T16:40:49.745Z,39.24
2019-03-22T16:43:21.219Z,38.52
2019-03-22T16:45:52.279Z,38.72
2019-03-22T16:48:23.305Z,39.48
2019-03-22T16:50:54.469Z,39.88
2019-03-22T16:53:25.668Z,39.18
2019-03-22T16:55:56.905Z,39.58
2019-03-22T16:58:27.888Z,40.37
2019-03-22T17:00:58.904Z,40.91
2019-03-22T17:03:29.946Z,40.21
2019-03-22T17:06:01.196Z,40.11
2019-03-22T17:08:32.451Z,40.50
2019-03-22T17:11:03.883Z,40.65
2019-03-22T17:13:35.013Z,41.04
2019-03-22T17:16:05.924Z,41.29
2019-03-22T17:18:37.008Z,41.04
2019-03-22T17:21:08.056Z,41.18
2019-03-22T17:23:41.743Z,41.56
2019-03-22T17:26:14.335Z,41.28
2019-03-22T17:28:48.044Z,42.15
2019-03-22T17:31:19.479Z,41.49
2019-03-22T17:33:50.724Z,40.93
2019-03-22T17:36:22.132Z,41.06
2019-03-22T17:38:53.213Z,41.23
2019-03-22T17:41:24.463Z,41.28
2019-03-22T17:43:55.897Z,41.38
2019-03-22T17:46:28.062Z,41.26
2019-03-22T17:48:59.175Z,41.57
2019-03-22T17:51:30.613Z,41.97
2019-03-22T17:54:01.967Z,42.08
2019-03-22T17:56:33.423Z,41.91
2019-03-22T17:59:04.817Z,41.57
2019-03-22T18:01:36.121Z,41.74
2019-03-22T18:04:07.446Z,41.63
2019-03-22T18:06:38.529Z,41.95
2019-03-22T18:09:11.272Z,42.05
2019-03-22T18:11:42.570Z,42.34
2019-03-22T18:14:13.871Z,42.53
2019-03-22T18:16:45.079Z,42.21
2019-03-22T18:19:19.251Z,42.38
2019-03-22T18:21:51.979Z,42.44
2019-03-22T18:24:23.060Z,42.67
2019-03-22T18:26:54.333Z,42.24
2019-03-22T18:29:27.005Z,42.27
2019-03-22T18:31:58.559Z,42.39
2019-03-22T18:34:34.876Z,43.01
2019-03-22T18:37:03.581Z,43.45
2019-03-22T18:39:36.912Z,42.96
2019-03-22T18:42:09.000Z,43.43
2019-03-22T18:44:40.213Z,43.33
2019-03-22T18:47:11.345Z,43.80
2019-03-22T18:49:42.713Z,44.03
2019-03-22T18:52:14.048Z,44.00
2019-03-22T18:54:45.817Z,44.04
2019-03-22T18:57:18.175Z,44.29
2019-03-22T18:59:49.486Z,44.00
2019-03-22T19:02:20.905Z,44.17
2019-03-22T19:04:52.135Z,44.67
2019-03-22T19:07:23.324Z,44.87
2019-03-22T19:09:54.643Z,45.25
2019-03-22T19:12:25.812Z,45.35
2019-03-22T19:14:57.121Z,45.17
2019-03-22T19:17:28.589Z,45.75
2019-03-22T19:20:00.917Z,45.95
2019-03-22T19:22:32.313Z,46.00
2019-03-22T19:25:03.351Z,46.28
2019-03-22T19:27:34.451Z,46.61
2019-03-22T19:30:06.038Z,46.90
2019-03-22T19:32:37.047Z,47.10
2019-03-22T19:35:09.331Z,47.19
2019-03-22T19:37:42.129Z,47.35
2019-03-22T19:40:15.099Z,47.75
2019-03-22T19:42:46.337Z,48.22
2019-03-22T19:45:18.040Z,48.67
2019-03-22T19:47:49.483Z,48.88
2019-03-22T19:50:20.522Z,49.04
2019-03-22T19:52:54.178Z,48.94
2019-03-22T19:55:28.397Z,49.09
2019-03-22T19:57:59.628Z,49.39
2019-03-22T20:00:31.004Z,49.46
2019-03-22T20:03:02.362Z,49.84
2019-03-22T20:05:36.946Z,49.02
2019-03-22T20:08:08.310Z,48.76
2019-03-22T20:10:39.766Z,48.58
2019-03-22T20:13:11.199Z,48.69
2019-03-22T20:15:42.137Z,49.06
2019-03-22T20:18:13.276Z,48.83
2019-03-22T20:20:45.315Z,48.77
2019-03-22T20:23:16.715Z,48.93
2019-03-22T20:25:47.872Z,48.76
2019-03-22T20:28:18.726Z,48.93
2019-03-22T20:30:50.064Z,49.03
2019-03-22T20:33:23.961Z,49.61
2019-03-22T20:35:55.097Z,49.22
2019-03-22T20:38:27.524Z,49.43
2019-03-22T20:40:58.880Z,49.75
2019-03-22T20:43:30.277Z,49.87
2019-03-22T20:46:01.473Z,49.60
2019-03-22T20:48:32.581Z,49.28
2019-03-22T20:51:03.973Z,49.65
2019-03-22T20:53:35.196Z,49.69
2019-03-22T20:56:06.390Z,50.00
2019-03-22T20:58:37.813Z,49.89
2019-03-22T21:01:09.124Z,50.11
2019-03-22T21:03:40.401Z,50.34
2019-03-22T21:06:11.796Z,50.67
2019-03-22T21:08:42.899Z,51.10
2019-03-22T21:11:14.005Z,51.19
2019-03-22T21:13:45.165Z,51.32
2019-03-22T21:16:16.380Z,51.77
2019-03-22T21:18:47.510Z,51.41
2019-03-22T21:21:18.606Z,51.54
2019-03-22T21:23:49.679Z,52.16
2019-03-22T21:26:21.019Z,52.31
2019-03-22T21:28:52.216Z,52.50
2019-03-22T21:31:23.443Z,52.74
2019-03-22T21:33:54.731Z,52.74
2019-03-22T21:36:25.962Z,51.97
2019-03-22T21:38:57.451Z,52.61
2019-03-22T21:41:28.875Z,52.62
2019-03-22T21:44:00.183Z,51.57
2019-03-22T21:46:31.371Z,51.60
2019-03-22T21:49:02.483Z,51.91
2019-03-22T21:51:33.688Z,52.11
2019-03-22T21:54:04.950Z,52.37
2019-03-22T21:56:36.128Z,52.30
2019-03-22T21:59:07.329Z,52.13
2019-03-22T22:01:38.550Z,52.21
2019-03-22T22:04:09.814Z,52.09
2019-03-22T22:06:41.253Z,52.26
2019-03-22T22:09:12.269Z,52.76
2019-03-22T22:11:43.289Z,53.02
2019-03-22T22:14:14.143Z,53.39
2019-03-22T22:16:45.361Z,53.51
2019-03-22T22:19:16.607Z,53.44
2019-03-22T22:21:48.081Z,53.83
2019-03-22T22:24:19.257Z,53.87
2019-03-22T22:26:50.595Z,53.81
2019-03-22T22:29:21.828Z,54.39
2019-03-22T22:31:52.926Z,54.18
2019-03-22T22:34:24.281Z,54.80
2019-03-22T22:36:55.684Z,54.81
2019-03-22T22:39:27.001Z,54.67
2019-03-22T22:41:57.821Z,55.15
2019-03-22T22:44:28.788Z,54.57
2019-03-22T22:46:59.894Z,54.67
2019-03-22T22:49:31.285Z,54.73
2019-03-22T22:52:02.800Z,54.94
2019-03-22T22:54:34.203Z,54.95
2019-03-22T22:57:05.122Z,54.78
2019-03-22T22:59:36.395Z,54.69
2019-03-22T23:02:07.763Z,55.10
2019-03-22T23:04:39.192Z,55.35
2019-03-22T23:07:10.168Z,55.23
2019-03-22T23:09:41.182Z,55.65
2019-03-22T23:12:12.974Z,55.58
2019-03-22T23:14:44.343Z,55.46
2019-03-22T23:17:15.085Z,55.67
2019-03-22T23:19:46.054Z,55.74
2019-03-22T23:22:17.411Z,55.06
2019-03-22T23:24:48.701Z,55.25
2019-03-22T23:27:19.765Z,55.16
2019-03-22T23:29:50.858Z,55.34
2019-03-22T23:32:22.009Z,55.44
2019-03-22T23:34:58.903Z,55.73
2019-03-22T23:37:25.853Z,55.95
2019-03-22T23:39:56.972Z,56.01
2019-03-22T23:42:27.867Z,56.36
2019-03-22T23:44:58.950Z,56.34
2019-03-22T23:47:30.298Z,56.02
2019-03-22T23:50:01.503Z,56.18
2019-03-22T23:52:32.407Z,56.40
2019-03-22T23:55:03.279Z,56.52
2019-03-22T23:57:34.654Z,56.68
